Time;durP1;ratioP1;P1;durP2;ratioP2;P2;SDS_P1;SDS_P2;PMS_P1;PMS_P2;Temp;Humidity;BMP_temperature;BMP_pressure;BME280_temperature;BME280_humidity;BME280_pressure;Samples;Min_cycle;Max_cycle;Signal;HPM_P1;HPM_P2
2022/10/23 00:00:10;;;;;;;22.17;14.30;;;10.60;99.90;;;;;;5010208;28;20454;-40
2022/10/23 00:02:37;;;;;;;26.13;14.32;;;10.60;99.90;;;;;;5010970;28;20046;-40
2022/10/23 00:05:04;;;;;;;19.05;11.40;;;10.60;99.90;;;;;;4994622;28;20140;-41
2022/10/23 00:07:32;;;;;;;23.90;13.85;;;10.60;99.90;;;;;;5017775;28;20045;-40
2022/10/23 00:09:58;;;;;;;22.83;13.15;;;10.60;99.90;;;;;;5005832;28;20567;-41
2022/10/23 00:12:26;;;;;;;22.23;14.43;;;10.60;99.90;;;;;;5017285;28;20391;-40
2022/10/23 00:14:53;;;;;;;21.63;13.45;;;10.60;99.90;;;;;;4993212;28;20045;-42
2022/10/23 00:17:20;;;;;;;41.75;20.10;;;10.60;99.90;;;;;;5014533;28;20082;-41
2022/10/23 00:19:47;;;;;;;23.35;13.95;;;10.60;99.90;;;;;;4997160;28;20081;-41
2022/10/23 00:22:13;;;;;;;30.63;16.42;;;10.60;99.90;;;;;;5024298;28;20121;-41
2022/10/23 00:24:42;;;;;;;21.25;14.43;;;10.60;99.90;;;;;;5000463;28;20129;-40
2022/10/23 00:27:09;;;;;;;30.42;16.35;;;10.60;99.90;;;;;;5007446;28;20053;-41
2022/10/23 00:29:35;;;;;;;28.30;14.93;;;10.60;99.90;;;;;;5016200;28;20473;-40
2022/10/23 00:32:02;;;;;;;21.15;14.82;;;10.60;99.90;;;;;;5015472;28;20462;-41
2022/10/23 00:34:29;;;;;;;23.40;14.70;;;10.60;99.90;;;;;;5033685;28;20065;-40
2022/10/23 00:36:56;;;;;;;21.45;13.63;;;10.60;99.90;;;;;;5014883;28;20124;-41
2022/10/23 00:39:22;;;;;;;23.13;14.60;;;10.60;99.90;;;;;;5030717;28;20111;-40
2022/10/23 00:41:50;;;;;;;27.02;15.40;;;10.60;99.90;;;;;;5015877;28;20096;-42
2022/10/23 00:45:00;;;;;;;25.30;16.13;;;10.60;99.90;;;;;;5014634;28;20444;-41
2022/10/23 00:47:27;;;;;;;34.60;18.00;;;10.60;99.90;;;;;;5016182;28;20549;-42
2022/10/23 00:49:53;;;;;;;26.73;15.98;;;10.60;99.90;;;;;;5033387;28;20139;-40
2022/10/23 00:52:20;;;;;;;25.70;15.52;;;10.60;99.90;;;;;;5015952;28;20087;-40
2022/10/23 00:54:47;;;;;;;32.45;16.65;;;10.60;99.90;;;;;;5031980;28;20085;-41
2022/10/23 00:57:15;;;;;;;33.92;18.55;;;10.60;99.90;;;;;;5011475;28;20072;-40
2022/10/23 00:59:42;;;;;;;23.77;14.82;;;10.60;99.90;;;;;;5033158;28;20053;-41
2022/10/23 01:02:09;;;;;;;28.85;17.58;;;10.70;99.90;;;;;;5032779;28;20065;-40
2022/10/23 01:04:36;;;;;;;39.72;21.98;;;10.70;99.90;;;;;;5015776;28;20049;-41
2022/10/23 01:07:05;;;;;;;34.88;20.30;;;10.70;99.90;;;;;;5028410;28;20116;-41
2022/10/23 01:09:33;;;;;;;27.55;18.20;;;10.80;99.90;;;;;;5014395;28;20085;-40
2022/10/23 01:12:02;;;;;;;28.63;17.70;;;10.80;99.90;;;;;;5030745;28;20136;-41
2022/10/23 01:14:32;;;;;;;28.20;16.90;;;10.80;99.90;;;;;;5014038;28;20057;-40
2022/10/23 01:17:03;;;;;;;25.67;15.82;;;10.80;99.90;;;;;;5031908;28;20134;-41
2022/10/23 01:19:39;;;;;;;36.83;17.83;;;10.80;99.90;;;;;;5020290;28;20077;-40
2022/10/23 01:22:10;;;;;;;30.00;19.17;;;10.90;99.90;;;;;;5015114;28;20053;-41
2022/10/23 01:24:43;;;;;;;28.55;17.23;;;10.90;99.90;;;;;;5032499;28;20091;-40
2022/10/23 01:27:18;;;;;;;34.97;19.17;;;10.90;99.90;;;;;;5020848;28;20116;-41
2022/10/23 01:29:46;;;;;;;27.05;17.42;;;10.90;99.90;;;;;;5005836;28;20074;-40
2022/10/23 01:32:14;;;;;;;33.90;18.63;;;11.00;99.90;;;;;;5020229;28;20145;-40
2022/10/23 01:34:44;;;;;;;28.60;17.98;;;11.00;99.90;;;;;;5026799;28;20104;-41
2022/10/23 01:37:12;;;;;;;34.50;18.75;;;11.00;99.90;;;;;;5027893;28;20089;-43
2022/10/23 01:39:41;;;;;;;34.08;18.35;;;11.00;99.90;;;;;;5013011;28;20100;-40
2022/10/23 01:42:10;;;;;;;26.35;14.98;;;11.00;99.90;;;;;;4995241;28;20076;-41
2022/10/23 01:44:41;;;;;;;30.40;17.00;;;11.00;99.90;;;;;;5008355;28;20384;-41
2022/10/23 01:47:08;;;;;;;24.50;14.68;;;11.00;99.90;;;;;;4993561;28;20078;-41
2022/10/23 01:49:35;;;;;;;24.92;16.60;;;11.00;99.90;;;;;;5013135;28;20058;-41
2022/10/23 01:52:03;;;;;;;31.50;17.08;;;11.00;99.90;;;;;;5011433;28;20449;-40
2022/10/23 01:54:31;;;;;;;29.83;18.45;;;11.00;99.90;;;;;;4993714;28;20620;-40
2022/10/23 01:56:58;;;;;;;23.55;14.65;;;11.00;99.90;;;;;;5012716;28;20112;-41
2022/10/23 01:59:27;;;;;;;20.17;14.05;;;11.00;99.90;;;;;;4995537;28;20105;-41
2022/10/23 02:01:56;;;;;;;21.50;13.60;;;11.00;99.90;;;;;;4994535;28;20490;-41
2022/10/23 02:04:25;;;;;;;19.33;11.52;;;11.00;99.90;;;;;;5005952;28;20050;-41
2022/10/23 02:06:52;;;;;;;24.20;16.30;;;10.90;99.90;;;;;;5001117;28;20078;-40
2022/10/23 02:09:19;;;;;;;24.95;14.30;;;10.90;99.90;;;;;;4999448;28;20143;-41
2022/10/23 02:11:51;;;;;;;28.33;15.57;;;10.80;99.90;;;;;;5031194;28;20104;-40
2022/10/23 02:14:20;;;;;;;29.95;15.05;;;10.90;99.90;;;;;;5010652;28;20046;-40
2022/10/23 02:16:48;;;;;;;26.88;15.75;;;10.80;99.90;;;;;;4993604;28;20081;-40
2022/10/23 02:19:21;;;;;;;26.38;16.92;;;10.80;99.90;;;;;;5013717;28;20141;-40
2022/10/23 02:21:50;;;;;;;27.70;15.50;;;10.80;99.90;;;;;;5014785;28;20053;-40
2022/10/23 02:24:18;;;;;;;34.95;17.42;;;10.80;99.90;;;;;;5016364;28;20472;-41
2022/10/23 02:26:48;;;;;;;27.63;16.27;;;10.80;99.90;;;;;;5025170;28;20127;-41
2022/10/23 02:29:18;;;;;;;22.35;14.52;;;10.80;99.90;;;;;;5006000;28;20058;-40
2022/10/23 02:31:44;;;;;;;20.73;14.05;;;10.80;99.90;;;;;;5011639;28;20100;-40
2022/10/23 02:34:11;;;;;;;23.55;13.20;;;10.70;99.90;;;;;;5016557;28;20089;-40
2022/10/23 02:36:39;;;;;;;32.92;18.27;;;10.80;99.90;;;;;;5018239;28;20076;-41
2022/10/23 02:39:06;;;;;;;26.02;16.17;;;10.80;99.90;;;;;;5029069;28;20494;-41
2022/10/23 02:41:39;;;;;;;19.33;11.95;;;10.80;99.90;;;;;;5016046;28;20092;-40
2022/10/23 02:44:16;;;;;;;24.25;14.18;;;10.80;99.90;;;;;;4997683;28;20099;-40
2022/10/23 02:46:49;;;;;;;18.30;13.30;;;10.80;99.90;;;;;;5015080;28;20704;-40
2022/10/23 02:49:18;;;;;;;24.40;15.05;;;10.70;99.90;;;;;;4986919;28;20058;-40
2022/10/23 02:51:54;;;;;;;22.67;14.70;;;10.70;99.90;;;;;;5011957;28;20054;-42
2022/10/23 02:54:24;;;;;;;24.52;15.00;;;10.70;99.90;;;;;;4997330;28;20050;-41
2022/10/23 02:56:53;;;;;;;22.60;14.73;;;10.60;99.90;;;;;;5012450;28;20551;-40
2022/10/23 02:59:21;;;;;;;19.15;11.85;;;10.60;99.90;;;;;;4993237;28;20054;-40
2022/10/23 03:01:50;;;;;;;19.42;12.77;;;10.60;99.90;;;;;;5009268;28;20041;-41
2022/10/23 03:04:17;;;;;;;22.23;15.20;;;10.60;99.90;;;;;;5006588;28;20128;-42
2022/10/23 03:06:44;;;;;;;20.23;13.18;;;10.60;99.90;;;;;;5006125;28;20133;-41
2022/10/23 03:09:12;;;;;;;22.35;12.90;;;10.50;99.90;;;;;;5017356;28;20105;-41
2022/10/23 03:11:38;;;;;;;31.60;18.95;;;10.50;99.90;;;;;;4996853;28;20058;-41
2022/10/23 03:14:05;;;;;;;22.02;13.88;;;10.50;99.90;;;;;;5012759;28;20081;-40
2022/10/23 03:16:32;;;;;;;26.48;15.63;;;10.60;99.90;;;;;;5014151;28;21930;-42
2022/10/23 03:18:59;;;;;;;32.50;18.23;;;10.50;99.90;;;;;;5006556;28;20073;-40
2022/10/23 03:21:25;;;;;;;29.00;17.92;;;10.50;99.90;;;;;;5014020;28;20133;-40
2022/10/23 03:23:52;;;;;;;27.75;14.82;;;10.50;99.90;;;;;;5014100;28;20124;-41
2022/10/23 03:26:20;;;;;;;30.58;17.48;;;10.50;99.90;;;;;;5012483;28;20352;-41
2022/10/23 03:28:47;;;;;;;30.60;17.35;;;10.50;99.90;;;;;;5003772;28;20084;-41
2022/10/23 03:31:14;;;;;;;29.65;19.05;;;10.50;99.90;;;;;;4996298;28;20517;-41
2022/10/23 03:33:41;;;;;;;41.50;20.80;;;10.50;99.90;;;;;;5005136;28;20065;-40
2022/10/23 03:36:08;;;;;;;38.00;20.30;;;10.50;99.90;;;;;;5008416;28;20089;-40
2022/10/23 03:38:35;;;;;;;30.88;19.40;;;10.60;99.90;;;;;;5024002;28;20080;-41
2022/10/23 03:41:02;;;;;;;37.28;18.98;;;10.60;99.90;;;;;;5024229;28;20557;-40
2022/10/23 03:43:30;;;;;;;30.70;17.50;;;10.60;99.90;;;;;;5028418;28;20132;-41
2022/10/23 03:45:57;;;;;;;37.65;20.52;;;10.60;99.90;;;;;;5029381;28;20108;-41
2022/10/23 03:48:24;;;;;;;24.10;17.20;;;10.60;99.90;;;;;;5026528;28;20080;-41
2022/10/23 03:50:50;;;;;;;29.33;18.38;;;10.60;99.90;;;;;;5018551;28;20086;-40
2022/10/23 03:53:17;;;;;;;39.95;20.25;;;10.60;99.90;;;;;;5010545;28;20104;-41
2022/10/23 03:55:44;;;;;;;29.92;18.40;;;10.70;99.90;;;;;;5027355;28;20058;-40
2022/10/23 03:58:11;;;;;;;38.35;19.73;;;10.60;99.90;;;;;;5029255;28;20049;-40
2022/10/23 04:00:39;;;;;;;35.72;19.48;;;10.60;99.90;;;;;;4997814;28;20084;-41
2022/10/23 04:03:06;;;;;;;34.97;18.30;;;10.60;99.90;;;;;;5028721;28;20481;-40
2022/10/23 04:05:32;;;;;;;28.27;18.10;;;10.60;99.90;;;;;;5030398;28;20092;-40
2022/10/23 04:07:59;;;;;;;35.30;18.83;;;10.60;99.90;;;;;;5001603;28;20085;-41
2022/10/23 04:10:26;;;;;;;40.03;19.92;;;10.60;99.90;;;;;;5021019;28;20054;-41
2022/10/23 04:12:53;;;;;;;29.80;17.90;;;10.60;99.90;;;;;;5010200;28;20050;-41
2022/10/23 04:15:19;;;;;;;34.38;18.30;;;10.60;99.90;;;;;;5003963;28;20200;-40
2022/10/23 04:17:48;;;;;;;32.65;19.52;;;10.60;99.90;;;;;;5029483;28;20099;-41
2022/10/23 04:20:14;;;;;;;22.77;15.38;;;10.60;99.90;;;;;;5010468;28;20468;-41
2022/10/23 04:22:41;;;;;;;34.38;19.50;;;10.60;99.90;;;;;;5015704;28;20057;-41
2022/10/23 04:25:09;;;;;;;33.08;19.65;;;10.60;99.90;;;;;;5013701;28;20043;-42
2022/10/23 04:27:35;;;;;;;30.98;17.50;;;10.60;99.90;;;;;;5015644;28;20103;-40
2022/10/23 04:30:03;;;;;;;32.47;17.90;;;10.60;99.90;;;;;;5014518;28;20045;-40
2022/10/23 04:32:30;;;;;;;31.33;16.10;;;10.50;99.90;;;;;;5033267;28;20047;-41
2022/10/23 04:34:58;;;;;;;26.67;17.55;;;10.50;99.90;;;;;;5024747;28;20121;-41
2022/10/23 04:37:25;;;;;;;35.90;18.40;;;10.50;99.90;;;;;;5020997;28;20081;-41
2022/10/23 04:39:51;;;;;;;34.42;19.48;;;10.50;99.90;;;;;;5029693;28;20440;-41
2022/10/23 04:42:18;;;;;;;30.63;19.60;;;10.50;99.90;;;;;;5025402;28;20123;-41
2022/10/23 04:44:45;;;;;;;32.78;17.90;;;10.50;99.90;;;;;;5020071;28;20544;-41
2022/10/23 04:47:12;;;;;;;29.00;16.90;;;10.50;99.90;;;;;;5033370;28;20519;-41
2022/10/23 04:49:38;;;;;;;25.13;16.10;;;10.50;99.90;;;;;;4999113;28;20558;-41
2022/10/23 04:52:06;;;;;;;25.27;16.10;;;10.50;99.90;;;;;;4997168;28;20541;-40
2022/10/23 04:54:36;;;;;;;27.35;17.05;;;10.40;99.90;;;;;;5024343;28;20081;-40
2022/10/23 04:57:03;;;;;;;33.88;18.25;;;10.40;99.90;;;;;;5028209;28;20057;-40
2022/10/23 04:59:30;;;;;;;26.77;17.08;;;10.40;99.90;;;;;;5014930;28;20089;-41
2022/10/23 05:01:56;;;;;;;25.58;15.32;;;10.40;99.90;;;;;;5028153;28;20129;-40
2022/10/23 05:04:23;;;;;;;27.33;17.08;;;10.40;99.90;;;;;;5029815;28;20081;-41
2022/10/23 05:06:50;;;;;;;30.33;18.33;;;10.40;99.90;;;;;;5003536;28;20081;-40
2022/10/23 05:09:18;;;;;;;26.58;15.98;;;10.40;99.90;;;;;;5006996;28;20077;-40
2022/10/23 05:11:45;;;;;;;25.08;15.98;;;10.40;99.90;;;;;;5013365;28;20108;-41
2022/10/23 05:14:12;;;;;;;30.73;18.85;;;10.30;99.90;;;;;;5027223;28;20057;-41
2022/10/23 05:16:42;;;;;;;32.97;17.77;;;10.30;99.90;;;;;;5028312;28;20616;-40
2022/10/23 05:19:09;;;;;;;31.95;17.92;;;10.30;99.90;;;;;;5020313;28;20101;-42
2022/10/23 05:21:36;;;;;;;39.00;20.40;;;10.30;99.90;;;;;;5014361;28;20132;-40
2022/10/23 05:24:03;;;;;;;32.63;18.27;;;10.30;99.90;;;;;;5013621;28;20081;-40
2022/10/23 05:26:32;;;;;;;30.30;18.15;;;10.30;99.90;;;;;;5007942;28;20502;-40
2022/10/23 05:28:59;;;;;;;26.00;16.65;;;10.30;99.90;;;;;;5010429;28;20064;-41
2022/10/23 05:31:25;;;;;;;37.67;20.63;;;10.20;99.90;;;;;;5012292;28;20498;-41
2022/10/23 05:33:53;;;;;;;32.55;19.00;;;10.20;99.90;;;;;;5010811;28;20470;-41
2022/10/23 05:36:19;;;;;;;30.00;17.77;;;10.20;99.90;;;;;;4992823;28;20635;-42
2022/10/23 05:38:46;;;;;;;32.35;18.27;;;10.30;99.90;;;;;;5001370;28;20562;-42
2022/10/23 05:41:13;;;;;;;39.03;20.30;;;10.20;99.90;;;;;;5010922;28;20141;-41
2022/10/23 05:43:41;;;;;;;31.60;18.00;;;10.20;99.90;;;;;;5010181;28;20454;-43
2022/10/23 05:46:08;;;;;;;30.90;17.77;;;10.20;99.90;;;;;;5003912;28;20054;-42
2022/10/23 05:48:34;;;;;;;31.77;18.63;;;10.20;99.90;;;;;;4984275;28;20085;-40
2022/10/23 05:51:05;;;;;;;40.80;19.88;;;10.20;99.90;;;;;;5007653;28;20069;-41
2022/10/23 05:53:32;;;;;;;33.03;19.73;;;10.20;99.90;;;;;;5000009;28;20506;-41
2022/10/23 05:56:04;;;;;;;31.55;19.25;;;10.20;99.90;;;;;;5001266;28;20489;-42
2022/10/23 05:58:30;;;;;;;28.65;17.15;;;10.20;99.90;;;;;;5016214;28;20453;-42
2022/10/23 06:00:59;;;;;;;40.03;20.90;;;10.10;99.90;;;;;;4998806;28;20526;-40
2022/10/23 06:03:25;;;;;;;31.65;18.70;;;10.20;99.90;;;;;;5014590;28;20399;-42
2022/10/23 06:05:52;;;;;;;35.97;20.55;;;10.20;99.90;;;;;;5017277;28;20532;-40
2022/10/23 06:08:19;;;;;;;36.40;20.60;;;10.20;99.90;;;;;;4996193;28;20146;-42
2022/10/23 06:10:46;;;;;;;33.22;18.83;;;10.20;99.90;;;;;;4997419;28;20050;-42
2022/10/23 06:13:13;;;;;;;32.53;20.20;;;10.20;99.90;;;;;;4988828;28;20453;-41
2022/10/23 06:15:39;;;;;;;35.97;19.98;;;10.20;99.90;;;;;;5012807;28;20132;-41
2022/10/23 06:18:07;;;;;;;32.47;19.35;;;10.30;99.90;;;;;;5011962;28;20133;-40
2022/10/23 06:20:35;;;;;;;40.72;21.02;;;10.30;99.90;;;;;;5017915;28;20160;-40
2022/10/23 06:23:02;;;;;;;38.15;19.98;;;10.30;99.90;;;;;;5015388;28;20054;-40
2022/10/23 06:25:29;;;;;;;37.35;20.67;;;10.30;99.90;;;;;;4999026;28;20109;-40
2022/10/23 06:27:56;;;;;;;42.25;20.52;;;10.30;99.90;;;;;;5022038;28;20096;-42
2022/10/23 06:30:23;;;;;;;40.42;19.00;;;10.30;99.90;;;;;;5003193;28;20115;-40
2022/10/23 06:32:50;;;;;;;38.20;20.90;;;10.30;99.90;;;;;;5006787;28;20050;-41
2022/10/23 06:35:18;;;;;;;47.10;21.10;;;10.30;99.90;;;;;;5004272;28;20103;-40
2022/10/23 06:37:45;;;;;;;38.78;20.70;;;10.30;99.90;;;;;;5009073;28;20124;-43
2022/10/23 06:40:12;;;;;;;36.75;20.98;;;10.40;99.90;;;;;;5017583;28;20061;-41
2022/10/23 06:42:38;;;;;;;33.60;19.92;;;10.40;99.90;;;;;;5001099;28;20089;-41
2022/10/23 06:45:06;;;;;;;45.05;21.52;;;10.50;99.90;;;;;;5002283;28;20088;-40
2022/10/23 06:47:33;;;;;;;43.28;21.83;;;10.40;99.90;;;;;;5006700;28;20049;-40
2022/10/23 06:50:00;;;;;;;36.70;20.60;;;10.50;99.90;;;;;;5018056;28;20109;-42
2022/10/23 06:52:30;;;;;;;39.67;21.15;;;10.40;99.90;;;;;;5017534;28;20474;-41
2022/10/23 06:54:57;;;;;;;43.38;20.52;;;10.60;99.90;;;;;;5017445;28;20052;-40
2022/10/23 06:57:24;;;;;;;39.00;21.40;;;10.50;99.90;;;;;;5015443;28;20069;-42
2022/10/23 06:59:50;;;;;;;42.95;22.58;;;10.50;99.90;;;;;;5016823;28;20132;-42
2022/10/23 07:02:17;;;;;;;36.92;21.77;;;10.50;99.90;;;;;;5013384;28;20126;-40
2022/10/23 07:04:44;;;;;;;36.38;19.95;;;10.60;99.90;;;;;;5014528;28;20058;-41
2022/10/23 07:07:11;;;;;;;31.92;17.83;;;10.60;99.90;;;;;;5004341;28;20100;-40
2022/10/23 07:09:39;;;;;;;40.35;20.75;;;10.50;99.90;;;;;;5013834;28;20133;-41
2022/10/23 07:12:06;;;;;;;45.72;21.20;;;10.60;99.90;;;;;;4994700;28;20111;-41
2022/10/23 07:14:33;;;;;;;42.78;20.67;;;10.70;99.90;;;;;;5022349;28;20053;-41
2022/10/23 07:16:59;;;;;;;41.40;21.20;;;10.70;99.90;;;;;;5018403;28;20057;-41
2022/10/23 07:19:26;;;;;;;44.60;20.48;;;10.70;99.90;;;;;;5024660;28;20137;-41
2022/10/23 07:21:53;;;;;;;38.95;20.58;;;10.70;99.90;;;;;;5013890;28;20053;-41
2022/10/23 07:24:20;;;;;;;35.08;19.38;;;10.80;99.90;;;;;;5014600;28;20084;-40
2022/10/23 07:26:48;;;;;;;36.28;19.05;;;10.80;99.90;;;;;;5014453;28;20086;-41
2022/10/23 07:29:15;;;;;;;39.80;20.63;;;10.80;99.90;;;;;;5014187;28;20387;-41
2022/10/23 07:31:41;;;;;;;39.45;18.20;;;10.80;99.90;;;;;;5023665;28;20096;-40
2022/10/23 07:34:09;;;;;;;34.45;18.95;;;10.90;99.90;;;;;;5013735;28;20182;-40
2022/10/23 07:36:36;;;;;;;35.50;20.00;;;10.90;99.90;;;;;;5003384;28;20133;-41
2022/10/23 07:39:03;;;;;;;34.90;19.25;;;11.00;99.90;;;;;;5009603;28;20128;-40
2022/10/23 07:41:30;;;;;;;36.08;18.60;;;11.00;99.90;;;;;;4999746;28;20050;-41
2022/10/23 07:43:58;;;;;;;41.17;18.95;;;11.00;99.90;;;;;;5013800;28;20081;-41
2022/10/23 07:46:25;;;;;;;32.20;18.23;;;11.10;99.90;;;;;;5012295;28;20104;-40
2022/10/23 07:48:52;;;;;;;41.80;19.35;;;11.10;99.90;;;;;;5013470;28;20045;-40
2022/10/23 07:51:18;;;;;;;34.25;18.80;;;11.10;99.90;;;;;;5012069;28;20054;-40
2022/10/23 07:53:45;;;;;;;39.40;18.63;;;11.20;99.90;;;;;;5011579;28;20121;-40
2022/10/23 07:56:14;;;;;;;36.38;18.88;;;11.20;99.90;;;;;;4996867;28;20054;-40
2022/10/23 07:58:40;;;;;;;37.20;18.88;;;11.30;99.90;;;;;;4995839;28;20046;-40
2022/10/23 08:01:14;;;;;;;37.25;19.63;;;11.30;99.90;;;;;;4998507;28;20049;-40
2022/10/23 08:03:41;;;;;;;38.10;19.02;;;11.30;99.90;;;;;;4996342;28;20575;-42
2022/10/23 08:06:08;;;;;;;29.85;17.83;;;11.40;99.90;;;;;;5011993;28;20057;-40
2022/10/23 08:08:35;;;;;;;31.30;17.10;;;11.50;99.90;;;;;;5014327;28;20085;-40
2022/10/23 08:11:01;;;;;;;38.88;17.02;;;11.50;99.90;;;;;;4996267;28;20100;-40
2022/10/23 08:13:28;;;;;;;29.75;16.83;;;11.50;99.90;;;;;;4993873;28;20084;-39
2022/10/23 08:15:57;;;;;;;32.30;17.75;;;11.60;99.90;;;;;;5010706;28;20135;-40
2022/10/23 08:18:25;;;;;;;29.48;16.23;;;11.60;99.90;;;;;;5013546;28;20395;-39
2022/10/23 08:20:52;;;;;;;36.00;16.15;;;11.70;99.90;;;;;;4994004;28;20092;-40
2022/10/23 08:23:19;;;;;;;28.38;16.90;;;11.70;99.90;;;;;;4992521;28;20054;-39
2022/10/23 08:25:46;;;;;;;28.17;15.48;;;11.80;99.90;;;;;;5011151;28;20054;-40
2022/10/23 08:28:14;;;;;;;28.45;15.38;;;11.80;99.90;;;;;;4974240;28;20086;-40
2022/10/23 08:30:41;;;;;;;50.15;15.77;;;11.90;99.90;;;;;;4990139;28;20425;-39
2022/10/23 08:33:08;;;;;;;30.60;15.23;;;11.90;99.90;;;;;;4999180;28;20108;-40
2022/10/23 08:35:37;;;;;;;33.13;15.38;;;12.00;99.90;;;;;;4995152;28;20097;-40
2022/10/23 08:38:04;;;;;;;26.58;15.23;;;12.10;99.90;;;;;;4996515;28;20082;-39
2022/10/23 08:40:34;;;;;;;30.30;14.57;;;12.10;99.90;;;;;;5014041;28;20438;-39
2022/10/23 08:43:03;;;;;;;27.27;14.13;;;12.20;99.90;;;;;;4988643;28;20050;-41
2022/10/23 08:45:31;;;;;;;23.98;14.55;;;12.20;99.90;;;;;;4990171;28;20062;-40
2022/10/23 08:47:59;;;;;;;27.98;14.15;;;12.30;99.90;;;;;;5001972;28;20137;-39
2022/10/23 08:50:28;;;;;;;24.05;13.52;;;12.30;99.90;;;;;;5004763;28;20141;-40
2022/10/23 08:52:59;;;;;;;26.30;12.85;;;12.40;99.90;;;;;;4975907;28;20141;-40
2022/10/23 08:55:30;;;;;;;29.23;13.35;;;12.50;99.90;;;;;;4997378;28;20549;-39
2022/10/23 08:57:58;;;;;;;28.90;14.65;;;12.50;99.90;;;;;;5011247;28;20473;-38
2022/10/23 09:00:25;;;;;;;26.73;12.65;;;12.60;99.90;;;;;;4986504;28;20077;-39
2022/10/23 09:02:52;;;;;;;23.27;12.73;;;12.70;99.90;;;;;;4991677;28;20093;-41
2022/10/23 09:05:21;;;;;;;21.40;12.30;;;12.70;99.90;;;;;;5000948;28;20054;-39
2022/10/23 09:07:58;;;;;;;26.65;12.45;;;12.80;99.90;;;;;;4976609;28;20105;-40
2022/10/23 09:10:57;;;;;;;23.33;12.40;;;12.90;99.90;;;;;;4957055;28;20472;-39
2022/10/23 09:13:45;;;;;;;23.25;11.32;;;13.00;99.90;;;;;;4994279;28;20050;-40
2022/10/23 09:16:16;;;;;;;18.88;11.15;;;13.10;99.90;;;;;;4977085;28;20054;-39
2022/10/23 09:18:43;;;;;;;21.67;11.40;;;13.10;99.90;;;;;;4976121;28;20077;-39
2022/10/23 09:21:10;;;;;;;21.00;10.02;;;13.10;99.90;;;;;;5012751;28;20116;-39
2022/10/23 09:23:38;;;;;;;18.50;10.77;;;13.20;99.90;;;;;;4982173;28;20059;-39
2022/10/23 09:26:10;;;;;;;22.50;10.70;;;13.30;99.90;;;;;;4993825;28;20057;-40
2022/10/23 09:28:43;;;;;;;25.63;11.60;;;13.40;99.90;;;;;;5011848;28;20056;-40
2022/10/23 09:31:11;;;;;;;18.77;9.90;;;13.50;99.90;;;;;;5011693;28;20149;-39
2022/10/23 09:33:38;;;;;;;18.75;10.00;;;13.50;99.90;;;;;;5011829;28;20053;-39
2022/10/23 09:36:06;;;;;;;18.80;9.73;;;13.60;99.90;;;;;;5020001;28;20385;-40
2022/10/23 09:38:35;;;;;;;14.13;9.27;;;13.70;99.90;;;;;;5020218;28;20092;-40
2022/10/23 09:41:07;;;;;;;19.20;9.60;;;13.70;99.90;;;;;;5010676;28;20081;-38
2022/10/23 09:43:33;;;;;;;21.77;9.55;;;13.80;99.90;;;;;;5007755;28;20057;-39
2022/10/23 09:46:01;;;;;;;21.13;9.85;;;13.80;99.90;;;;;;5011366;28;20125;-39
2022/10/23 09:48:28;;;;;;;20.48;9.30;;;13.90;99.90;;;;;;5009192;28;20119;-39
2022/10/23 09:50:56;;;;;;;15.75;8.70;;;13.90;99.90;;;;;;5010677;28;20081;-38
2022/10/23 09:53:29;;;;;;;15.05;8.77;;;14.00;99.90;;;;;;5011865;28;20108;-39
2022/10/23 09:55:56;;;;;;;14.13;8.50;;;14.10;99.90;;;;;;5011489;28;20096;-38
2022/10/23 09:58:30;;;;;;;17.73;8.75;;;14.10;99.90;;;;;;5012497;28;20137;-39
2022/10/23 10:00:57;;;;;;;13.55;8.52;;;14.20;99.90;;;;;;5006025;28;20057;-39
2022/10/23 10:03:25;;;;;;;22.23;9.07;;;14.20;99.90;;;;;;5012213;28;20140;-39
2022/10/23 10:05:59;;;;;;;17.83;8.18;;;14.30;99.90;;;;;;5026877;28;20128;-39
2022/10/23 10:08:36;;;;;;;14.57;7.90;;;14.40;99.90;;;;;;5007188;28;20542;-38
2022/10/23 10:11:06;;;;;;;14.90;8.02;;;14.40;99.90;;;;;;5010770;28;20191;-38
2022/10/23 10:13:57;;;;;;;14.23;7.70;;;14.50;99.90;;;;;;5007896;28;20042;-40
2022/10/23 10:16:28;;;;;;;14.47;6.93;;;14.60;99.90;;;;;;5007081;28;20476;-39
2022/10/23 10:18:57;;;;;;;16.00;8.30;;;14.60;99.90;;;;;;5006787;28;20504;-39
2022/10/23 10:21:25;;;;;;;20.23;7.57;;;14.70;99.90;;;;;;5006144;28;20152;-40
2022/10/23 10:23:54;;;;;;;16.02;7.38;;;14.70;99.90;;;;;;4999944;28;20054;-38
2022/10/23 10:26:28;;;;;;;13.10;6.78;;;14.80;99.90;;;;;;5005626;28;20089;-38
2022/10/23 10:29:02;;;;;;;16.75;7.32;;;14.90;99.90;;;;;;5009861;28;20053;-38
2022/10/23 10:31:34;;;;;;;18.70;7.18;;;15.00;99.90;;;;;;4992020;28;20144;-39
2022/10/23 10:34:05;;;;;;;18.58;6.28;;;15.10;99.90;;;;;;4996476;28;20068;-39
2022/10/23 10:36:46;;;;;;;12.52;5.97;;;15.10;99.90;;;;;;4983620;28;20089;-39
2022/10/23 10:39:20;;;;;;;15.30;6.20;;;15.20;99.90;;;;;;4993408;28;20050;-39
2022/10/23 10:41:52;;;;;;;10.95;6.30;;;15.20;99.90;;;;;;4994842;28;20069;-38
2022/10/23 10:44:42;;;;;;;12.32;6.20;;;15.20;99.90;;;;;;5017512;28;20057;-38
2022/10/23 10:47:13;;;;;;;15.82;6.35;;;15.20;99.90;;;;;;5009825;28;20058;-38
2022/10/23 10:49:42;;;;;;;10.95;5.55;;;15.20;99.90;;;;;;5001294;28;20116;-38
2022/10/23 10:52:12;;;;;;;12.27;6.30;;;15.20;99.90;;;;;;5012658;28;20077;-39
2022/10/23 10:54:46;;;;;;;16.02;6.30;;;15.30;99.90;;;;;;5012565;28;20077;-38
2022/10/23 10:57:16;;;;;;;13.73;5.90;;;15.30;99.90;;;;;;5005487;28;20077;-38
2022/10/23 10:59:44;;;;;;;12.48;5.57;;;15.30;99.90;;;;;;4994900;28;20092;-38
2022/10/23 11:02:20;;;;;;;16.05;5.55;;;15.40;99.90;;;;;;4997380;28;20108;-38
2022/10/23 11:04:50;;;;;;;13.48;6.03;;;15.40;99.90;;;;;;5007340;28;20077;-38
2022/10/23 11:07:20;;;;;;;16.25;5.88;;;15.40;99.90;;;;;;4999241;28;20065;-38
2022/10/23 11:09:47;;;;;;;14.88;6.72;;;15.40;99.90;;;;;;5013009;28;20082;-41
2022/10/23 11:12:16;;;;;;;14.25;6.22;;;15.40;99.90;;;;;;5014839;28;20081;-39
2022/10/23 11:14:44;;;;;;;15.50;6.13;;;15.40;99.90;;;;;;5004112;28;21419;-38
2022/10/23 11:17:14;;;;;;;13.18;6.10;;;15.40;99.90;;;;;;4995637;28;20054;-38
2022/10/23 11:19:43;;;;;;;12.07;5.28;;;15.40;99.90;;;;;;5014667;28;20494;-38
2022/10/23 11:22:12;;;;;;;16.40;6.10;;;15.40;99.90;;;;;;5000304;28;20132;-38
2022/10/23 11:24:58;;;;;;;7.35;5.22;;;15.40;99.90;;;;;;5013307;28;20537;-39
2022/10/23 11:27:47;;;;;;;10.25;5.18;;;15.40;99.90;;;;;;5002541;28;20447;-38
2022/10/23 11:30:21;;;;;;;15.63;5.28;;;15.40;99.90;;;;;;5000794;28;20100;-38
2022/10/23 11:33:11;;;;;;;11.55;5.53;;;15.40;99.90;;;;;;5001025;28;20093;-38
2022/10/23 11:35:45;;;;;;;13.95;5.60;;;15.40;99.90;;;;;;4996408;28;20793;-38
2022/10/23 11:38:17;;;;;;;13.30;5.03;;;15.40;99.90;;;;;;4989426;28;20549;-37
2022/10/23 11:40:45;;;;;;;17.90;5.13;;;15.30;99.90;;;;;;5007281;28;20051;-37
2022/10/23 11:43:12;;;;;;;10.93;5.38;;;15.40;99.90;;;;;;5009134;28;20054;-38
2022/10/23 11:45:40;;;;;;;12.88;5.25;;;15.40;99.90;;;;;;5007483;28;20088;-38
2022/10/23 11:48:20;;;;;;;13.60;4.88;;;15.40;99.90;;;;;;5006717;28;20121;-38
2022/10/23 11:50:52;;;;;;;16.02;4.93;;;15.50;99.90;;;;;;4996707;28;20101;-38
2022/10/23 11:53:38;;;;;;;13.27;5.30;;;15.50;99.90;;;;;;4985682;28;20049;-38
2022/10/23 11:56:05;;;;;;;12.48;5.13;;;15.50;99.90;;;;;;5007489;28;20050;-38
2022/10/23 11:58:50;;;;;;;13.82;5.68;;;15.50;99.90;;;;;;5002727;28;20053;-38
2022/10/23 12:01:29;;;;;;;16.40;5.05;;;15.60;99.90;;;;;;4992082;28;20112;-39
2022/10/23 12:03:59;;;;;;;11.23;5.20;;;15.60;99.90;;;;;;5002518;28;20092;-38
2022/10/23 12:06:29;;;;;;;9.88;4.65;;;15.60;99.90;;;;;;5005937;28;20081;-38
2022/10/23 12:08:58;;;;;;;14.77;4.53;;;15.60;99.90;;;;;;4998228;28;20382;-38
2022/10/23 12:11:27;;;;;;;12.15;4.60;;;15.50;99.90;;;;;;4999220;28;20093;-38
2022/10/23 12:13:53;;;;;;;14.63;5.25;;;15.60;99.90;;;;;;4992886;28;20510;-38
2022/10/23 12:16:21;;;;;;;10.38;4.82;;;15.60;99.90;;;;;;4996181;28;20506;-38
2022/10/23 12:18:50;;;;;;;9.45;4.72;;;15.60;99.90;;;;;;4985708;28;20374;-38
2022/10/23 12:21:19;;;;;;;12.35;4.43;;;15.60;99.90;;;;;;4984129;28;20054;-38
2022/10/23 12:23:55;;;;;;;11.93;4.45;;;15.60;99.90;;;;;;4993295;28;20450;-38
2022/10/23 12:26:35;;;;;;;13.10;5.90;;;15.70;99.90;;;;;;4992133;28;20450;-39
2022/10/23 12:29:07;;;;;;;18.13;7.18;;;15.70;99.90;;;;;;5028680;28;20045;-38
2022/10/23 12:31:41;;;;;;;20.73;8.88;;;15.70;99.90;;;;;;5017954;28;20047;-38
2022/10/23 12:34:14;;;;;;;22.38;11.85;;;15.70;99.90;;;;;;5023124;28;20052;-38
2022/10/23 12:36:49;;;;;;;18.15;5.53;;;15.80;99.90;;;;;;5033464;28;20459;-38